sensor_id;sensor_type;location;lat;lon;timestamp;pressure;altitude;pressure_sealevel;temperature;humidity
73003;BME280;61184;54.356;-8.550;2023-02-01T00:01:06;102083.13;;;21.08;31.16
73003;BME280;61184;54.356;-8.550;2023-02-01T00:03:05;102086.88;;;21.25;30.95
73003;BME280;61184;54.356;-8.550;2023-02-01T00:05:35;102081.87;;;21.18;31.01
73003;BME280;61184;54.356;-8.550;2023-02-01T00:08:02;102076.92;;;21.03;30.92
73003;BME280;61184;54.356;-8.550;2023-02-01T00:10:21;102077.41;;;21.22;30.90
73003;BME280;61184;54.356;-8.550;2023-02-01T00:12:47;102071.31;;;21.31;30.83
73003;BME280;61184;54.356;-8.550;2023-02-01T00:15:30;102070.45;;;21.48;30.60
73003;BME280;61184;54.356;-8.550;2023-02-01T00:17:55;102063.17;;;21.29;30.81
73003;BME280;61184;54.356;-8.550;2023-02-01T00:20:04;102060.55;;;21.36;30.66
73003;BME280;61184;54.356;-8.550;2023-02-01T00:22:29;102057.47;;;21.28;30.78
73003;BME280;61184;54.356;-8.550;2023-02-01T00:24:59;102059.44;;;21.09;30.71
73003;BME280;61184;54.356;-8.550;2023-02-01T00:27:20;102057.41;;;20.71;30.87
73003;BME280;61184;54.356;-8.550;2023-02-01T00:30:01;102052.93;;;21.08;30.98
73003;BME280;61184;54.356;-8.550;2023-02-01T00:32:11;102046.75;;;21.13;30.91
73003;BME280;61184;54.356;-8.550;2023-02-01T00:34:36;102049.20;;;20.92;30.88
73003;BME280;61184;54.356;-8.550;2023-02-01T00:37:02;102049.13;;;21.05;31.01
73003;BME280;61184;54.356;-8.550;2023-02-01T00:39:27;102047.13;;;21.04;31.02
73003;BME280;61184;54.356;-8.550;2023-02-01T00:42:02;102046.10;;;21.15;30.82
73003;BME280;61184;54.356;-8.550;2023-02-01T00:44:19;102042.95;;;21.17;30.82
73003;BME280;61184;54.356;-8.550;2023-02-01T00:47:02;102032.71;;;21.28;30.67
73003;BME280;61184;54.356;-8.550;2023-02-01T00:49:12;102033.71;;;21.23;30.70
73003;BME280;61184;54.356;-8.550;2023-02-01T00:51:52;102029.45;;;20.91;30.82
73003;BME280;61184;54.356;-8.550;2023-02-01T00:54:02;102026.12;;;21.18;30.75
73003;BME280;61184;54.356;-8.550;2023-02-01T00:56:30;102017.38;;;21.31;30.58
73003;BME280;61184;54.356;-8.550;2023-02-01T00:58:51;102022.61;;;21.02;30.61
73003;BME280;61184;54.356;-8.550;2023-02-01T01:01:21;102020.92;;;20.78;30.91
73003;BME280;61184;54.356;-8.550;2023-02-01T01:03:44;102027.52;;;21.03;30.90
73003;BME280;61184;54.356;-8.550;2023-02-01T01:06:10;102030.48;;;20.92;31.01
73003;BME280;61184;54.356;-8.550;2023-02-01T01:08:51;102026.95;;;20.71;30.98
73003;BME280;61184;54.356;-8.550;2023-02-01T01:10:58;102020.97;;;21.19;30.69
73003;BME280;61184;54.356;-8.550;2023-02-01T01:13:30;102020.46;;;20.60;30.79
73003;BME280;61184;54.356;-8.550;2023-02-01T01:15:53;102021.65;;;20.59;31.06
73003;BME280;61184;54.356;-8.550;2023-02-01T01:18:15;102023.41;;;20.97;30.87
73003;BME280;61184;54.356;-8.550;2023-02-01T01:20:41;102022.30;;;20.98;30.87
73003;BME280;61184;54.356;-8.550;2023-02-01T01:23:07;102020.96;;;20.94;30.88
73003;BME280;61184;54.356;-8.550;2023-02-01T01:25:31;102019.80;;;20.51;31.11
73003;BME280;61184;54.356;-8.550;2023-02-01T01:27:57;102020.09;;;20.89;30.94
73003;BME280;61184;54.356;-8.550;2023-02-01T01:30:22;102012.57;;;20.95;31.16
73003;BME280;61184;54.356;-8.550;2023-02-01T01:33:02;102015.31;;;20.95;30.84
73003;BME280;61184;54.356;-8.550;2023-02-01T01:35:22;102009.43;;;21.06;30.68
73003;BME280;61184;54.356;-8.550;2023-02-01T01:37:52;102002.35;;;20.95;30.78
73003;BME280;61184;54.356;-8.550;2023-02-01T01:40:05;102005.61;;;20.92;30.78
73003;BME280;61184;54.356;-8.550;2023-02-01T01:42:30;102000.62;;;20.75;30.99
73003;BME280;61184;54.356;-8.550;2023-02-01T01:45:04;102003.54;;;20.87;30.85
73003;BME280;61184;54.356;-8.550;2023-02-01T01:47:21;102008.54;;;21.08;30.60
73003;BME280;61184;54.356;-8.550;2023-02-01T01:49:46;101999.79;;;20.89;30.76
73003;BME280;61184;54.356;-8.550;2023-02-01T01:52:12;102004.34;;;21.07;30.58
73003;BME280;61184;54.356;-8.550;2023-02-01T01:54:40;102003.20;;;20.83;30.85
73003;BME280;61184;54.356;-8.550;2023-02-01T01:57:09;102008.25;;;20.74;30.97
73003;BME280;61184;54.356;-8.550;2023-02-01T01:59:29;102005.05;;;20.88;30.77
73003;BME280;61184;54.356;-8.550;2023-02-01T02:01:53;102004.76;;;21.03;30.58
73003;BME280;61184;54.356;-8.550;2023-02-01T02:04:31;102002.11;;;20.84;30.78
73003;BME280;61184;54.356;-8.550;2023-02-01T02:06:49;101997.67;;;21.05;30.82
73003;BME280;61184;54.356;-8.550;2023-02-01T02:09:10;101998.72;;;20.74;30.89
73003;BME280;61184;54.356;-8.550;2023-02-01T02:11:35;101994.20;;;20.45;30.94
73003;BME280;61184;54.356;-8.550;2023-02-01T02:14:02;101993.28;;;20.75;30.87
73003;BME280;61184;54.356;-8.550;2023-02-01T02:16:38;101989.10;;;20.75;30.86
73003;BME280;61184;54.356;-8.550;2023-02-01T02:19:00;101993.60;;;20.81;30.80
73003;BME280;61184;54.356;-8.550;2023-02-01T02:21:24;101996.36;;;20.80;30.77
73003;BME280;61184;54.356;-8.550;2023-02-01T02:28:49;101997.26;;;20.94;30.60
73003;BME280;61184;54.356;-8.550;2023-02-01T02:31:15;101993.04;;;20.59;30.71
73003;BME280;61184;54.356;-8.550;2023-02-01T02:35:59;101994.95;;;20.82;30.67
73003;BME280;61184;54.356;-8.550;2023-02-01T02:38:22;101993.78;;;21.06;30.64
73003;BME280;61184;54.356;-8.550;2023-02-01T02:40:48;101986.49;;;20.78;30.71
73003;BME280;61184;54.356;-8.550;2023-02-01T02:43:12;101991.79;;;20.59;30.92
73003;BME280;61184;54.356;-8.550;2023-02-01T02:45:40;101993.76;;;20.60;30.93
73003;BME280;61184;54.356;-8.550;2023-02-01T02:48:02;101991.31;;;20.63;30.85
73003;BME280;61184;54.356;-8.550;2023-02-01T02:50:26;101992.94;;;20.69;30.81
73003;BME280;61184;54.356;-8.550;2023-02-01T02:52:56;101990.38;;;20.72;30.76
73003;BME280;61184;54.356;-8.550;2023-02-01T02:55:14;101983.86;;;20.61;30.87
73003;BME280;61184;54.356;-8.550;2023-02-01T02:58:01;101980.52;;;20.67;30.78
73003;BME280;61184;54.356;-8.550;2023-02-01T03:00:08;101976.01;;;20.76;30.65
73003;BME280;61184;54.356;-8.550;2023-02-01T03:02:31;101970.80;;;20.66;30.78
73003;BME280;61184;54.356;-8.550;2023-02-01T03:05:02;101975.99;;;20.61;30.80
73003;BME280;61184;54.356;-8.550;2023-02-01T03:09:48;101972.02;;;20.66;30.75
73003;BME280;61184;54.356;-8.550;2023-02-01T03:12:15;101979.22;;;20.74;30.61
73003;BME280;61184;54.356;-8.550;2023-02-01T03:14:38;101972.96;;;20.75;30.60
73003;BME280;61184;54.356;-8.550;2023-02-01T03:17:13;101978.16;;;20.57;30.54
73003;BME280;61184;54.356;-8.550;2023-02-01T03:19:32;101981.73;;;20.65;30.67
73003;BME280;61184;54.356;-8.550;2023-02-01T03:21:59;101988.31;;;20.83;30.49
73003;BME280;61184;54.356;-8.550;2023-02-01T03:24:32;101990.91;;;20.40;30.70
73003;BME280;61184;54.356;-8.550;2023-02-01T03:26:52;101989.32;;;21.01;30.53
73003;BME280;61184;54.356;-8.550;2023-02-01T03:29:14;101984.68;;;20.90;30.67
73003;BME280;61184;54.356;-8.550;2023-02-01T03:31:36;101984.41;;;20.61;30.72
73003;BME280;61184;54.356;-8.550;2023-02-01T03:34:02;101979.62;;;20.47;30.85
73003;BME280;61184;54.356;-8.550;2023-02-01T03:36:31;101977.24;;;20.57;30.73
73003;BME280;61184;54.356;-8.550;2023-02-01T03:38:59;101972.53;;;20.79;30.72
73003;BME280;61184;54.356;-8.550;2023-02-01T03:41:23;101970.67;;;20.62;30.64
73003;BME280;61184;54.356;-8.550;2023-02-01T03:43:55;101970.18;;;20.21;30.83
73003;BME280;61184;54.356;-8.550;2023-02-01T03:46:15;101974.32;;;20.54;30.72
73003;BME280;61184;54.356;-8.550;2023-02-01T03:48:36;101974.94;;;20.49;30.81
73003;BME280;61184;54.356;-8.550;2023-02-01T03:51:02;101971.18;;;20.47;30.82
73003;BME280;61184;54.356;-8.550;2023-02-01T03:53:26;101971.47;;;20.44;30.79
73003;BME280;61184;54.356;-8.550;2023-02-01T03:56:02;101974.72;;;20.44;30.81
73003;BME280;61184;54.356;-8.550;2023-02-01T03:58:30;101971.68;;;20.49;30.75
73003;BME280;61184;54.356;-8.550;2023-02-01T04:01:02;101967.82;;;20.40;30.84
73003;BME280;61184;54.356;-8.550;2023-02-01T04:03:22;101972.53;;;20.75;30.73
73003;BME280;61184;54.356;-8.550;2023-02-01T04:05:33;101978.60;;;20.69;30.48
73003;BME280;61184;54.356;-8.550;2023-02-01T04:07:58;101971.07;;;20.64;30.52
73003;BME280;61184;54.356;-8.550;2023-02-01T04:10:24;101975.54;;;20.54;30.63
73003;BME280;61184;54.356;-8.550;2023-02-01T04:13:02;101977.54;;;20.42;30.79
73003;BME280;61184;54.356;-8.550;2023-02-01T04:15:15;101970.37;;;20.49;30.71
73003;BME280;61184;54.356;-8.550;2023-02-01T04:17:42;101970.18;;;20.81;30.58
73003;BME280;61184;54.356;-8.550;2023-02-01T04:20:06;101963.31;;;21.04;30.60
73003;BME280;61184;54.356;-8.550;2023-02-01T04:22:31;101962.92;;;20.42;30.48
73003;BME280;61184;54.356;-8.550;2023-02-01T04:25:02;101964.05;;;20.36;30.83
73003;BME280;61184;54.356;-8.550;2023-02-01T04:27:22;101967.61;;;20.58;30.55
73003;BME280;61184;54.356;-8.550;2023-02-01T04:29:47;101966.63;;;20.82;30.57
73003;BME280;61184;54.356;-8.550;2023-02-01T04:32:13;101970.12;;;20.48;30.69
73003;BME280;61184;54.356;-8.550;2023-02-01T04:35:01;101970.05;;;20.67;30.72
73003;BME280;61184;54.356;-8.550;2023-02-01T04:37:04;101969.28;;;20.70;30.68
73003;BME280;61184;54.356;-8.550;2023-02-01T04:39:30;101970.40;;;19.92;31.03
73003;BME280;61184;54.356;-8.550;2023-02-01T04:41:55;101960.57;;;20.48;30.65
73003;BME280;61184;54.356;-8.550;2023-02-01T04:44:30;101960.17;;;20.64;30.75
73003;BME280;61184;54.356;-8.550;2023-02-01T04:46:51;101959.01;;;20.56;30.54
73003;BME280;61184;54.356;-8.550;2023-02-01T04:49:12;101961.76;;;20.54;30.52
73003;BME280;61184;54.356;-8.550;2023-02-01T04:51:37;101956.47;;;20.49;30.60
73003;BME280;61184;54.356;-8.550;2023-02-01T04:54:02;101954.16;;;20.33;30.77
73003;BME280;61184;54.356;-8.550;2023-02-01T04:56:30;101952.05;;;20.52;30.52
73003;BME280;61184;54.356;-8.550;2023-02-01T04:59:02;101956.08;;;20.45;30.64
73003;BME280;61184;54.356;-8.550;2023-02-01T05:01:19;101958.67;;;20.57;30.49
73003;BME280;61184;54.356;-8.550;2023-02-01T05:04:02;101951.09;;;20.39;30.66
73003;BME280;61184;54.356;-8.550;2023-02-01T05:06:12;101955.24;;;20.34;30.73
73003;BME280;61184;54.356;-8.550;2023-02-01T05:08:35;101949.94;;;20.72;30.56
73003;BME280;61184;54.356;-8.550;2023-02-01T05:11:01;101949.90;;;20.43;30.60
73003;BME280;61184;54.356;-8.550;2023-02-01T05:13:30;101948.29;;;20.36;30.70
73003;BME280;61184;54.356;-8.550;2023-02-01T05:15:51;101952.34;;;20.47;30.57
73003;BME280;61184;54.356;-8.550;2023-02-01T05:18:20;101954.06;;;20.73;30.55
73003;BME280;61184;54.356;-8.550;2023-02-01T05:20:56;101954.32;;;20.54;30.44
73003;BME280;61184;54.356;-8.550;2023-02-01T05:23:07;101954.78;;;20.92;30.54
73003;BME280;61184;54.356;-8.550;2023-02-01T05:25:33;101951.98;;;20.60;30.37
73003;BME280;61184;54.356;-8.550;2023-02-01T05:27:58;101960.75;;;20.69;30.54
73003;BME280;61184;54.356;-8.550;2023-02-01T05:30:41;101960.39;;;20.21;30.56
73003;BME280;61184;54.356;-8.550;2023-02-01T05:32:51;101966.20;;;20.60;30.36
73003;BME280;61184;54.356;-8.550;2023-02-01T05:35:30;101967.59;;;20.55;30.41
73003;BME280;61184;54.356;-8.550;2023-02-01T05:37:55;101974.11;;;20.49;30.74
73003;BME280;61184;54.356;-8.550;2023-02-01T05:40:20;101969.72;;;20.44;30.53
73003;BME280;61184;54.356;-8.550;2023-02-01T05:42:31;101967.10;;;20.52;30.45
73003;BME280;61184;54.356;-8.550;2023-02-01T05:44:57;101969.46;;;20.55;30.41
73003;BME280;61184;54.356;-8.550;2023-02-01T05:47:22;101971.65;;;20.19;30.78
73003;BME280;61184;54.356;-8.550;2023-02-01T05:50:03;101968.82;;;20.25;30.73
73003;BME280;61184;54.356;-8.550;2023-02-01T05:52:32;101966.02;;;20.32;30.65
73003;BME280;61184;54.356;-8.550;2023-02-01T05:54:38;101962.03;;;20.31;30.66
73003;BME280;61184;54.356;-8.550;2023-02-01T05:57:37;101970.28;;;20.07;30.93
73003;BME280;61184;54.356;-8.550;2023-02-01T05:59:30;101971.27;;;20.57;30.60
73003;BME280;61184;54.356;-8.550;2023-02-01T06:01:55;101973.84;;;20.51;30.71
73003;BME280;61184;54.356;-8.550;2023-02-01T06:04:20;101979.80;;;20.08;30.58
73003;BME280;61184;54.356;-8.550;2023-02-01T06:06:53;101981.69;;;20.50;30.69
73003;BME280;61184;54.356;-8.550;2023-02-01T06:09:14;101979.02;;;20.73;30.69
73003;BME280;61184;54.356;-8.550;2023-02-01T06:11:51;101986.99;;;20.52;30.65
73003;BME280;61184;54.356;-8.550;2023-02-01T06:14:02;101978.89;;;20.61;30.52
73003;BME280;61184;54.356;-8.550;2023-02-01T06:16:28;101981.86;;;20.59;30.53
73003;BME280;61184;54.356;-8.550;2023-02-01T06:18:53;101982.80;;;20.52;30.61
73003;BME280;61184;54.356;-8.550;2023-02-01T06:21:20;101983.31;;;20.49;30.63
73003;BME280;61184;54.356;-8.550;2023-02-01T06:23:45;101982.79;;;20.38;30.49
73003;BME280;61184;54.356;-8.550;2023-02-01T06:26:24;101982.70;;;20.44;30.40
73003;BME280;61184;54.356;-8.550;2023-02-01T06:28:35;101978.80;;;20.51;30.33
73003;BME280;61184;54.356;-8.550;2023-02-01T06:31:04;101974.38;;;20.93;30.38
73003;BME280;61184;54.356;-8.550;2023-02-01T06:33:28;101985.55;;;20.60;30.49
73003;BME280;61184;54.356;-8.550;2023-02-01T06:35:57;101980.04;;;20.86;30.44
73003;BME280;61184;54.356;-8.550;2023-02-01T06:38:25;101977.86;;;20.37;30.76
73003;BME280;61184;54.356;-8.550;2023-02-01T06:40:43;101976.07;;;20.36;30.46
73003;BME280;61184;54.356;-8.550;2023-02-01T06:43:08;101978.40;;;20.50;30.31
73003;BME280;61184;54.356;-8.550;2023-02-01T06:45:43;101978.67;;;20.93;30.35
73003;BME280;61184;54.356;-8.550;2023-02-01T06:48:02;101987.05;;;20.16;30.70
73003;BME280;61184;54.356;-8.550;2023-02-01T06:50:30;101976.35;;;20.24;30.60
73003;BME280;61184;54.356;-8.550;2023-02-01T06:52:50;101970.36;;;20.76;30.55
73003;BME280;61184;54.356;-8.550;2023-02-01T06:55:16;101970.07;;;20.71;30.59
73003;BME280;61184;54.356;-8.550;2023-02-01T07:00:30;101972.02;;;20.15;30.68
73003;BME280;61184;54.356;-8.550;2023-02-01T07:02:32;101969.48;;;20.49;30.56
73003;BME280;61184;54.356;-8.550;2023-02-01T07:04:58;101975.80;;;20.47;30.58
73003;BME280;61184;54.356;-8.550;2023-02-01T07:07:23;101979.43;;;20.29;30.51
73003;BME280;61184;54.356;-8.550;2023-02-01T07:09:49;101976.69;;;20.68;30.61
73003;BME280;61184;54.356;-8.550;2023-02-01T07:14:41;101977.07;;;20.64;30.67
73003;BME280;61184;54.356;-8.550;2023-02-01T07:17:05;101974.56;;;20.46;30.56
73003;BME280;61184;54.356;-8.550;2023-02-01T07:19:31;101971.84;;;20.44;30.60
73003;BME280;61184;54.356;-8.550;2023-02-01T07:21:59;101967.94;;;20.54;30.48
73003;BME280;61184;54.356;-8.550;2023-02-01T07:24:22;101970.73;;;20.40;30.61
73003;BME280;61184;54.356;-8.550;2023-02-01T07:26:47;101968.48;;;20.30;30.76
73003;BME280;61184;54.356;-8.550;2023-02-01T07:29:15;101965.73;;;20.49;30.55
73003;BME280;61184;54.356;-8.550;2023-02-01T07:31:38;101973.05;;;20.59;30.73
73003;BME280;61184;54.356;-8.550;2023-02-01T07:34:06;101970.25;;;20.47;30.58
73003;BME280;61184;54.356;-8.550;2023-02-01T07:36:30;101971.86;;;20.25;30.53
73003;BME280;61184;54.356;-8.550;2023-02-01T07:39:02;101968.98;;;20.54;30.49
73003;BME280;61184;54.356;-8.550;2023-02-01T07:41:30;101969.11;;;20.58;30.45
73003;BME280;61184;54.356;-8.550;2023-02-01T07:43:53;101971.04;;;20.40;30.94
73003;BME280;61184;54.356;-8.550;2023-02-01T07:46:13;101972.35;;;20.34;30.75
73003;BME280;61184;54.356;-8.550;2023-02-01T07:48:37;101974.15;;;20.42;30.63
73003;BME280;61184;54.356;-8.550;2023-02-01T07:51:04;101975.20;;;20.22;30.93
73003;BME280;61184;54.356;-8.550;2023-02-01T07:53:30;101974.19;;;20.52;30.84
73003;BME280;61184;54.356;-8.550;2023-02-01T07:55:53;101974.80;;;20.52;30.86
73003;BME280;61184;54.356;-8.550;2023-02-01T07:58:19;101977.72;;;20.12;30.80
73003;BME280;61184;54.356;-8.550;2023-02-01T08:00:44;101977.38;;;20.00;30.93
73003;BME280;61184;54.356;-8.550;2023-02-01T08:05:59;101977.07;;;20.08;30.85
73003;BME280;61184;54.356;-8.550;2023-02-01T08:08:02;101974.12;;;20.51;30.60
73003;BME280;61184;54.356;-8.550;2023-02-01T08:10:26;101981.32;;;20.29;30.87
73003;BME280;61184;54.356;-8.550;2023-02-01T08:12:51;101979.51;;;20.22;30.73
73003;BME280;61184;54.356;-8.550;2023-02-01T08:15:30;101978.66;;;20.81;30.30
73003;BME280;61184;54.356;-8.550;2023-02-01T08:17:57;101974.94;;;21.07;29.70
73003;BME280;61184;54.356;-8.550;2023-02-01T08:20:10;101980.52;;;21.00;29.80
73003;BME280;61184;54.356;-8.550;2023-02-01T08:22:35;101985.05;;;21.22;29.64
73003;BME280;61184;54.356;-8.550;2023-02-01T08:25:00;101981.91;;;21.44;29.49
73003;BME280;61184;54.356;-8.550;2023-02-01T08:27:24;101978.01;;;21.46;29.60
73003;BME280;61184;54.356;-8.550;2023-02-01T08:29:51;101983.61;;;21.64;29.50
73003;BME280;61184;54.356;-8.550;2023-02-01T08:32:25;101978.84;;;21.80;29.43
73003;BME280;61184;54.356;-8.550;2023-02-01T08:34:41;101981.89;;;21.86;29.47
73003;BME280;61184;54.356;-8.550;2023-02-01T08:37:13;101982.42;;;22.02;29.36
73003;BME280;61184;54.356;-8.550;2023-02-01T08:40:02;101986.91;;;21.68;29.30
73003;BME280;61184;54.356;-8.550;2023-02-01T08:41:57;101984.18;;;22.10;29.16
73003;BME280;61184;54.356;-8.550;2023-02-01T08:44:23;101982.69;;;21.92;29.17
73003;BME280;61184;54.356;-8.550;2023-02-01T08:46:48;101986.20;;;22.19;29.26
73003;BME280;61184;54.356;-8.550;2023-02-01T08:49:14;101990.99;;;22.30;29.19
73003;BME280;61184;54.356;-8.550;2023-02-01T08:51:39;101989.95;;;22.15;29.09
73003;BME280;61184;54.356;-8.550;2023-02-01T08:54:04;101991.51;;;22.47;29.12
73003;BME280;61184;54.356;-8.550;2023-02-01T08:56:30;101991.71;;;22.04;29.13
73003;BME280;61184;54.356;-8.550;2023-02-01T08:58:55;101997.65;;;22.35;29.12
73003;BME280;61184;54.356;-8.550;2023-02-01T09:01:21;101999.94;;;22.65;29.07
73003;BME280;61184;54.356;-8.550;2023-02-01T09:03:50;101999.36;;;22.39;29.10
73003;BME280;61184;54.356;-8.550;2023-02-01T09:06:13;102011.18;;;22.43;29.11
73003;BME280;61184;54.356;-8.550;2023-02-01T09:08:46;102013.73;;;22.46;29.12
73003;BME280;61184;54.356;-8.550;2023-02-01T09:11:04;102018.28;;;22.41;29.22
73003;BME280;61184;54.356;-8.550;2023-02-01T09:13:28;102013.32;;;22.33;29.31
73003;BME280;61184;54.356;-8.550;2023-02-01T09:15:54;102010.66;;;22.28;29.36
73003;BME280;61184;54.356;-8.550;2023-02-01T09:18:19;102014.36;;;22.23;29.15
73003;BME280;61184;54.356;-8.550;2023-02-01T09:20:44;102018.26;;;22.32;29.37
73003;BME280;61184;54.356;-8.550;2023-02-01T09:23:14;102023.68;;;22.32;29.36
73003;BME280;61184;54.356;-8.550;2023-02-01T09:26:01;102021.84;;;22.32;29.35
73003;BME280;61184;54.356;-8.550;2023-02-01T09:28:00;102018.91;;;22.16;29.54
73003;BME280;61184;54.356;-8.550;2023-02-01T09:30:27;102016.96;;;22.25;29.40
73003;BME280;61184;54.356;-8.550;2023-02-01T09:33:02;102023.72;;;22.10;29.57
73003;BME280;61184;54.356;-8.550;2023-02-01T09:35:17;102020.55;;;22.19;29.47
73003;BME280;61184;54.356;-8.550;2023-02-01T09:37:42;102022.30;;;22.10;29.58
73003;BME280;61184;54.356;-8.550;2023-02-01T09:40:16;102025.07;;;22.11;29.53
73003;BME280;61184;54.356;-8.550;2023-02-01T09:42:46;102026.74;;;22.19;29.44
73003;BME280;61184;54.356;-8.550;2023-02-01T09:45:07;102028.83;;;22.17;29.48
73003;BME280;61184;54.356;-8.550;2023-02-01T09:47:25;102029.97;;;22.46;29.42
73003;BME280;61184;54.356;-8.550;2023-02-01T09:49:54;102030.70;;;22.13;29.56
73003;BME280;61184;54.356;-8.550;2023-02-01T09:52:23;102037.35;;;21.96;29.78
73003;BME280;61184;54.356;-8.550;2023-02-01T09:57:11;102043.20;;;22.15;29.58
73003;BME280;61184;54.356;-8.550;2023-02-01T09:59:38;102040.76;;;22.23;29.49
73003;BME280;61184;54.356;-8.550;2023-02-01T10:01:57;102042.92;;;22.17;29.58
73003;BME280;61184;54.356;-8.550;2023-02-01T10:04:22;102047.18;;;22.43;29.53
73003;BME280;61184;54.356;-8.550;2023-02-01T10:07:04;102044.13;;;22.01;29.71
73003;BME280;61184;54.356;-8.550;2023-02-01T10:09:28;102048.88;;;21.97;30.02
73003;BME280;61184;54.356;-8.550;2023-02-01T10:12:12;102049.60;;;21.67;30.15
73003;BME280;61184;54.356;-8.550;2023-02-01T10:14:18;102051.12;;;21.08;30.87
73003;BME280;61184;54.356;-8.550;2023-02-01T10:16:38;102054.17;;;21.20;31.12
73003;BME280;61184;54.356;-8.550;2023-02-01T10:19:04;102053.96;;;20.75;31.46
73003;BME280;61184;54.356;-8.550;2023-02-01T10:21:28;102059.79;;;20.52;31.77
73003;BME280;61184;54.356;-8.550;2023-02-01T10:24:03;102059.58;;;20.71;31.79
73003;BME280;61184;54.356;-8.550;2023-02-01T10:26:18;102056.26;;;20.66;31.57
73003;BME280;61184;54.356;-8.550;2023-02-01T10:28:37;102054.98;;;20.50;31.85
73003;BME280;61184;54.356;-8.550;2023-02-01T10:31:01;102058.03;;;21.02;31.81
73003;BME280;61184;54.356;-8.550;2023-02-01T10:33:30;102065.97;;;21.10;31.06
73003;BME280;61184;54.356;-8.550;2023-02-01T10:35:55;102060.10;;;20.70;31.84
73003;BME280;61184;54.356;-8.550;2023-02-01T10:38:24;102071.90;;;20.86;31.94
73003;BME280;61184;54.356;-8.550;2023-02-01T10:40:52;102068.76;;;21.23;31.14
73003;BME280;61184;54.356;-8.550;2023-02-01T10:43:22;102071.29;;;21.64;30.96
73003;BME280;61184;54.356;-8.550;2023-02-01T10:46:06;102064.92;;;21.06;31.31
73003;BME280;61184;54.356;-8.550;2023-02-01T10:48:00;102067.20;;;20.77;31.40
73003;BME280;61184;54.356;-8.550;2023-02-01T10:50:33;102069.45;;;20.73;31.44
73003;BME280;61184;54.356;-8.550;2023-02-01T10:52:52;102074.49;;;20.24;32.05
73003;BME280;61184;54.356;-8.550;2023-02-01T10:57:40;102073.57;;;20.47;32.15
73003;BME280;61184;54.356;-8.550;2023-02-01T11:02:33;102072.14;;;20.18;32.85
73003;BME280;61184;54.356;-8.550;2023-02-01T11:05:07;102071.29;;;19.35;33.30
73003;BME280;61184;54.356;-8.550;2023-02-01T11:07:31;102072.61;;;20.32;32.71
73003;BME280;61184;54.356;-8.550;2023-02-01T11:09:51;102075.99;;;20.05;32.70
73003;BME280;61184;54.356;-8.550;2023-02-01T11:12:28;102076.54;;;19.65;33.59
73003;BME280;61184;54.356;-8.550;2023-02-01T11:19:31;102087.57;;;19.91;32.61
73003;BME280;61184;54.356;-8.550;2023-02-01T11:22:04;102092.13;;;20.22;32.50
73003;BME280;61184;54.356;-8.550;2023-02-01T11:24:23;102089.78;;;20.78;32.01
73003;BME280;61184;54.356;-8.550;2023-02-01T11:26:46;102075.83;;;20.80;31.39
73003;BME280;61184;54.356;-8.550;2023-02-01T11:29:22;102082.67;;;20.42;32.13
73003;BME280;61184;54.356;-8.550;2023-02-01T11:31:37;102081.54;;;20.33;32.21
73003;BME280;61184;54.356;-8.550;2023-02-01T11:34:07;102085.39;;;20.21;32.40
73003;BME280;61184;54.356;-8.550;2023-02-01T11:36:31;102085.18;;;20.43;31.75
73003;BME280;61184;54.356;-8.550;2023-02-01T11:38:54;102078.49;;;20.80;31.62
73003;BME280;61184;54.356;-8.550;2023-02-01T11:41:23;102078.84;;;20.14;32.12
73003;BME280;61184;54.356;-8.550;2023-02-01T11:43:55;102086.25;;;21.00;31.68
73003;BME280;61184;54.356;-8.550;2023-02-01T11:46:17;102086.24;;;20.76;31.68
73003;BME280;61184;54.356;-8.550;2023-02-01T11:48:40;102088.69;;;20.63;31.58
73003;BME280;61184;54.356;-8.550;2023-02-01T11:51:19;102077.43;;;21.58;30.97
73003;BME280;61184;54.356;-8.550;2023-02-01T11:53:44;102074.28;;;21.26;30.75
73003;BME280;61184;54.356;-8.550;2023-02-01T11:56:05;102074.65;;;21.34;30.68
73003;BME280;61184;54.356;-8.550;2023-02-01T11:58:28;102075.80;;;21.31;31.00
73003;BME280;61184;54.356;-8.550;2023-02-01T12:00:51;102079.85;;;20.90;31.81
73003;BME280;61184;54.356;-8.550;2023-02-01T12:03:36;102073.44;;;20.96;31.43
73003;BME280;61184;54.356;-8.550;2023-02-01T12:05:41;102067.95;;;20.83;31.35
73003;BME280;61184;54.356;-8.550;2023-02-01T12:08:13;102062.09;;;21.43;31.09
73003;BME280;61184;54.356;-8.550;2023-02-01T12:10:41;102067.04;;;21.34;31.29
73003;BME280;61184;54.356;-8.550;2023-02-01T12:12:56;102059.43;;;21.31;30.94
73003;BME280;61184;54.356;-8.550;2023-02-01T12:15:27;102057.55;;;21.29;31.25
73003;BME280;61184;54.356;-8.550;2023-02-01T12:17:58;102052.01;;;21.16;31.09
73003;BME280;61184;54.356;-8.550;2023-02-01T12:20:14;102043.20;;;21.06;31.22
73003;BME280;61184;54.356;-8.550;2023-02-01T12:22:39;102052.08;;;20.85;31.42
73003;BME280;61184;54.356;-8.550;2023-02-01T12:25:10;102055.37;;;21.49;30.94
73003;BME280;61184;54.356;-8.550;2023-02-01T12:30:01;102052.63;;;20.82;31.17
73003;BME280;61184;54.356;-8.550;2023-02-01T12:32:22;102051.18;;;21.38;31.10
73003;BME280;61184;54.356;-8.550;2023-02-01T12:37:09;102057.60;;;21.32;31.20
73003;BME280;61184;54.356;-8.550;2023-02-01T12:39:32;102055.00;;;21.25;31.24
73003;BME280;61184;54.356;-8.550;2023-02-01T12:41:58;102051.60;;;20.67;31.36
73003;BME280;61184;54.356;-8.550;2023-02-01T12:44:30;102052.28;;;21.15;31.35
73003;BME280;61184;54.356;-8.550;2023-02-01T12:46:47;102042.88;;;21.20;31.28
73003;BME280;61184;54.356;-8.550;2023-02-01T12:49:14;102046.20;;;21.18;31.32
73003;BME280;61184;54.356;-8.550;2023-02-01T12:51:36;102044.46;;;20.90;31.36
73003;BME280;61184;54.356;-8.550;2023-02-01T12:54:04;102040.60;;;21.06;31.11
73003;BME280;61184;54.356;-8.550;2023-02-01T12:56:34;102040.78;;;21.11;31.36
73003;BME280;61184;54.356;-8.550;2023-02-01T12:58:51;102043.16;;;21.25;31.17
73003;BME280;61184;54.356;-8.550;2023-02-01T13:01:26;102044.12;;;20.62;31.63
73003;BME280;61184;54.356;-8.550;2023-02-01T13:03:50;102046.56;;;21.31;31.37